sensor_id;sensor_type;location;lat;lon;timestamp;temperature;humidity
58261;DHT22;44058;52.898;6.502;2022-07-29T00:00:43;15.80;99.90
58261;DHT22;44058;52.898;6.502;2022-07-29T00:03:12;15.80;99.90
58261;DHT22;44058;52.898;6.502;2022-07-29T00:05:40;15.80;99.90
58261;DHT22;44058;52.898;6.502;2022-07-29T00:08:06;15.80;99.90
58261;DHT22;44058;52.898;6.502;2022-07-29T00:10:32;15.80;99.90
58261;DHT22;44058;52.898;6.502;2022-07-29T00:12:58;15.80;99.90
58261;DHT22;44058;52.898;6.502;2022-07-29T00:15:24;15.80;99.90
58261;DHT22;44058;52.898;6.502;2022-07-29T00:17:49;15.80;99.90
58261;DHT22;44058;52.898;6.502;2022-07-29T00:20:15;15.80;99.90
58261;DHT22;44058;52.898;6.502;2022-07-29T00:22:41;15.80;99.90
58261;DHT22;44058;52.898;6.502;2022-07-29T00:25:07;15.70;99.90
58261;DHT22;44058;52.898;6.502;2022-07-29T00:27:34;15.80;99.90
58261;DHT22;44058;52.898;6.502;2022-07-29T00:30:00;15.70;99.90
58261;DHT22;44058;52.898;6.502;2022-07-29T00:32:26;15.80;99.90
58261;DHT22;44058;52.898;6.502;2022-07-29T00:34:52;15.70;99.90
58261;DHT22;44058;52.898;6.502;2022-07-29T00:37:37;15.70;99.90
58261;DHT22;44058;52.898;6.502;2022-07-29T00:40:03;15.70;99.90
58261;DHT22;44058;52.898;6.502;2022-07-29T00:42:29;15.70;99.90
58261;DHT22;44058;52.898;6.502;2022-07-29T00:44:54;15.70;99.90
58261;DHT22;44058;52.898;6.502;2022-07-29T00:47:20;15.70;99.90
58261;DHT22;44058;52.898;6.502;2022-07-29T00:49:46;15.60;99.90
58261;DHT22;44058;52.898;6.502;2022-07-29T00:52:12;15.60;99.90
58261;DHT22;44058;52.898;6.502;2022-07-29T00:54:39;15.60;99.90
58261;DHT22;44058;52.898;6.502;2022-07-29T00:57:06;15.60;99.90
58261;DHT22;44058;52.898;6.502;2022-07-29T00:59:33;15.60;99.90
58261;DHT22;44058;52.898;6.502;2022-07-29T01:01:59;15.60;99.90
58261;DHT22;44058;52.898;6.502;2022-07-29T01:04:24;15.60;99.90
58261;DHT22;44058;52.898;6.502;2022-07-29T01:06:50;15.60;99.90
58261;DHT22;44058;52.898;6.502;2022-07-29T01:09:18;15.50;99.90
58261;DHT22;44058;52.898;6.502;2022-07-29T01:11:45;15.60;99.90
58261;DHT22;44058;52.898;6.502;2022-07-29T01:14:12;15.60;99.90
58261;DHT22;44058;52.898;6.502;2022-07-29T01:16:47;15.60;99.90
58261;DHT22;44058;52.898;6.502;2022-07-29T01:21:59;15.60;99.90
58261;DHT22;44058;52.898;6.502;2022-07-29T01:25:10;15.60;99.90
58261;DHT22;44058;52.898;6.502;2022-07-29T01:27:44;15.60;99.90
58261;DHT22;44058;52.898;6.502;2022-07-29T01:30:11;15.50;99.90
58261;DHT22;44058;52.898;6.502;2022-07-29T01:32:38;15.60;99.90
58261;DHT22;44058;52.898;6.502;2022-07-29T01:35:16;15.60;99.90
58261;DHT22;44058;52.898;6.502;2022-07-29T01:38:11;15.50;99.90
58261;DHT22;44058;52.898;6.502;2022-07-29T01:40:45;15.50;99.90
58261;DHT22;44058;52.898;6.502;2022-07-29T01:43:18;15.50;99.90
58261;DHT22;44058;52.898;6.502;2022-07-29T01:45:49;15.50;99.90
58261;DHT22;44058;52.898;6.502;2022-07-29T01:51:08;15.50;99.90
58261;DHT22;44058;52.898;6.502;2022-07-29T01:53:43;15.50;99.90
58261;DHT22;44058;52.898;6.502;2022-07-29T01:56:12;15.50;99.90
58261;DHT22;44058;52.898;6.502;2022-07-29T01:58:40;15.50;99.90
58261;DHT22;44058;52.898;6.502;2022-07-29T02:01:09;15.50;99.90
58261;DHT22;44058;52.898;6.502;2022-07-29T02:03:38;15.50;99.90
58261;DHT22;44058;52.898;6.502;2022-07-29T02:06:06;15.50;99.90
58261;DHT22;44058;52.898;6.502;2022-07-29T02:08:34;15.50;99.90
58261;DHT22;44058;52.898;6.502;2022-07-29T02:11:03;15.50;99.90
58261;DHT22;44058;52.898;6.502;2022-07-29T02:13:31;15.50;99.90
58261;DHT22;44058;52.898;6.502;2022-07-29T02:16:00;15.50;99.90
58261;DHT22;44058;52.898;6.502;2022-07-29T02:18:28;15.50;99.90
58261;DHT22;44058;52.898;6.502;2022-07-29T02:20:56;15.40;99.90
58261;DHT22;44058;52.898;6.502;2022-07-29T02:23:24;15.40;99.90
58261;DHT22;44058;52.898;6.502;2022-07-29T02:25:56;15.40;99.90
58261;DHT22;44058;52.898;6.502;2022-07-29T02:28:24;15.40;99.90
58261;DHT22;44058;52.898;6.502;2022-07-29T02:30:53;15.40;99.90
58261;DHT22;44058;52.898;6.502;2022-07-29T02:33:21;15.30;99.90
58261;DHT22;44058;52.898;6.502;2022-07-29T02:35:50;15.40;99.90
58261;DHT22;44058;52.898;6.502;2022-07-29T02:38:18;15.40;99.90
58261;DHT22;44058;52.898;6.502;2022-07-29T02:41:08;15.40;99.90
58261;DHT22;44058;52.898;6.502;2022-07-29T02:43:35;15.40;99.90
58261;DHT22;44058;52.898;6.502;2022-07-29T02:46:04;15.40;99.90
58261;DHT22;44058;52.898;6.502;2022-07-29T02:48:40;15.40;99.90
58261;DHT22;44058;52.898;6.502;2022-07-29T02:51:20;15.50;99.90
58261;DHT22;44058;52.898;6.502;2022-07-29T02:53:51;15.40;99.90
58261;DHT22;44058;52.898;6.502;2022-07-29T02:56:23;15.40;99.90
58261;DHT22;44058;52.898;6.502;2022-07-29T02:58:55;15.40;99.90
58261;DHT22;44058;52.898;6.502;2022-07-29T03:01:23;15.40;99.90
58261;DHT22;44058;52.898;6.502;2022-07-29T03:03:51;15.40;99.90
58261;DHT22;44058;52.898;6.502;2022-07-29T03:06:20;15.50;99.90
58261;DHT22;44058;52.898;6.502;2022-07-29T03:08:46;15.40;99.90
58261;DHT22;44058;52.898;6.502;2022-07-29T03:11:13;15.40;99.90
58261;DHT22;44058;52.898;6.502;2022-07-29T03:13:39;15.50;99.90
58261;DHT22;44058;52.898;6.502;2022-07-29T03:16:05;15.50;99.90
58261;DHT22;44058;52.898;6.502;2022-07-29T03:18:32;15.40;99.90
58261;DHT22;44058;52.898;6.502;2022-07-29T03:20:58;15.50;99.90
58261;DHT22;44058;52.898;6.502;2022-07-29T03:23:24;15.40;99.90
58261;DHT22;44058;52.898;6.502;2022-07-29T03:25:51;15.40;99.90
58261;DHT22;44058;52.898;6.502;2022-07-29T03:28:17;15.40;99.90
58261;DHT22;44058;52.898;6.502;2022-07-29T03:30:43;15.40;99.90
58261;DHT22;44058;52.898;6.502;2022-07-29T03:33:09;15.40;99.90
58261;DHT22;44058;52.898;6.502;2022-07-29T03:35:34;15.40;99.90
58261;DHT22;44058;52.898;6.502;2022-07-29T03:38:00;15.40;99.90
58261;DHT22;44058;52.898;6.502;2022-07-29T03:40:38;15.40;99.90
58261;DHT22;44058;52.898;6.502;2022-07-29T03:43:05;15.40;99.90
58261;DHT22;44058;52.898;6.502;2022-07-29T03:45:32;15.40;99.90
58261;DHT22;44058;52.898;6.502;2022-07-29T03:48:02;15.40;99.90
58261;DHT22;44058;52.898;6.502;2022-07-29T03:50:30;15.40;99.90
58261;DHT22;44058;52.898;6.502;2022-07-29T03:52:56;15.40;99.90
58261;DHT22;44058;52.898;6.502;2022-07-29T03:55:23;15.40;99.90
58261;DHT22;44058;52.898;6.502;2022-07-29T03:57:49;15.30;99.90
58261;DHT22;44058;52.898;6.502;2022-07-29T04:00:16;15.40;99.90
58261;DHT22;44058;52.898;6.502;2022-07-29T04:02:43;15.40;99.90
58261;DHT22;44058;52.898;6.502;2022-07-29T04:05:14;15.30;99.90
58261;DHT22;44058;52.898;6.502;2022-07-29T04:07:43;15.30;99.90
58261;DHT22;44058;52.898;6.502;2022-07-29T04:10:09;15.30;99.90
58261;DHT22;44058;52.898;6.502;2022-07-29T04:12:34;15.30;99.90
58261;DHT22;44058;52.898;6.502;2022-07-29T04:15:01;15.30;99.90
58261;DHT22;44058;52.898;6.502;2022-07-29T04:17:26;15.30;99.90
58261;DHT22;44058;52.898;6.502;2022-07-29T04:19:52;15.20;99.90
58261;DHT22;44058;52.898;6.502;2022-07-29T04:22:18;15.30;99.90
58261;DHT22;44058;52.898;6.502;2022-07-29T04:24:43;15.30;99.90
58261;DHT22;44058;52.898;6.502;2022-07-29T04:27:09;15.20;99.90
58261;DHT22;44058;52.898;6.502;2022-07-29T04:29:35;15.20;99.90
58261;DHT22;44058;52.898;6.502;2022-07-29T04:32:00;15.30;99.90
58261;DHT22;44058;52.898;6.502;2022-07-29T04:34:26;15.30;99.90
58261;DHT22;44058;52.898;6.502;2022-07-29T04:36:52;15.30;99.90
58261;DHT22;44058;52.898;6.502;2022-07-29T04:39:18;15.30;99.90
58261;DHT22;44058;52.898;6.502;2022-07-29T04:41:44;15.30;99.90
58261;DHT22;44058;52.898;6.502;2022-07-29T04:44:10;15.30;99.90
58261;DHT22;44058;52.898;6.502;2022-07-29T04:46:36;15.30;99.90
58261;DHT22;44058;52.898;6.502;2022-07-29T04:49:03;15.30;99.90
58261;DHT22;44058;52.898;6.502;2022-07-29T04:51:28;15.30;99.90
58261;DHT22;44058;52.898;6.502;2022-07-29T04:53:54;15.30;99.90
58261;DHT22;44058;52.898;6.502;2022-07-29T04:56:20;15.40;99.90
58261;DHT22;44058;52.898;6.502;2022-07-29T04:58:46;15.30;99.90
58261;DHT22;44058;52.898;6.502;2022-07-29T05:01:11;15.30;99.90
58261;DHT22;44058;52.898;6.502;2022-07-29T05:03:37;15.30;99.90
58261;DHT22;44058;52.898;6.502;2022-07-29T05:06:03;15.30;99.90
58261;DHT22;44058;52.898;6.502;2022-07-29T05:08:28;15.30;99.90
58261;DHT22;44058;52.898;6.502;2022-07-29T05:10:54;15.30;99.90
58261;DHT22;44058;52.898;6.502;2022-07-29T05:13:20;15.30;99.90
58261;DHT22;44058;52.898;6.502;2022-07-29T05:15:45;15.30;99.90
58261;DHT22;44058;52.898;6.502;2022-07-29T05:18:11;15.30;99.90
58261;DHT22;44058;52.898;6.502;2022-07-29T05:20:37;15.40;99.90
58261;DHT22;44058;52.898;6.502;2022-07-29T05:23:03;15.30;99.90
58261;DHT22;44058;52.898;6.502;2022-07-29T05:25:29;15.30;99.90
58261;DHT22;44058;52.898;6.502;2022-07-29T05:27:55;15.30;99.90
58261;DHT22;44058;52.898;6.502;2022-07-29T05:30:21;15.20;99.90
58261;DHT22;44058;52.898;6.502;2022-07-29T05:32:47;15.20;99.90
58261;DHT22;44058;52.898;6.502;2022-07-29T05:35:14;15.30;99.90
58261;DHT22;44058;52.898;6.502;2022-07-29T05:37:40;15.30;99.90
58261;DHT22;44058;52.898;6.502;2022-07-29T05:40:06;15.30;99.90
58261;DHT22;44058;52.898;6.502;2022-07-29T05:42:33;15.30;99.90
58261;DHT22;44058;52.898;6.502;2022-07-29T05:44:59;15.30;99.90
58261;DHT22;44058;52.898;6.502;2022-07-29T05:47:25;15.40;99.90
58261;DHT22;44058;52.898;6.502;2022-07-29T05:49:51;15.40;99.90
58261;DHT22;44058;52.898;6.502;2022-07-29T05:52:16;15.40;99.90
58261;DHT22;44058;52.898;6.502;2022-07-29T05:54:42;15.40;99.90
58261;DHT22;44058;52.898;6.502;2022-07-29T05:57:08;15.40;99.90
58261;DHT22;44058;52.898;6.502;2022-07-29T05:59:40;15.40;99.90
58261;DHT22;44058;52.898;6.502;2022-07-29T06:02:06;15.40;99.90
58261;DHT22;44058;52.898;6.502;2022-07-29T06:04:32;15.50;99.90
58261;DHT22;44058;52.898;6.502;2022-07-29T06:06:58;15.50;99.90
58261;DHT22;44058;52.898;6.502;2022-07-29T06:09:26;15.50;99.90
58261;DHT22;44058;52.898;6.502;2022-07-29T06:11:52;15.60;99.90
58261;DHT22;44058;52.898;6.502;2022-07-29T06:14:18;15.60;99.90
58261;DHT22;44058;52.898;6.502;2022-07-29T06:16:44;15.70;99.90
58261;DHT22;44058;52.898;6.502;2022-07-29T06:19:09;15.70;99.90
58261;DHT22;44058;52.898;6.502;2022-07-29T06:21:35;15.80;99.90
58261;DHT22;44058;52.898;6.502;2022-07-29T06:24:01;15.90;99.90
58261;DHT22;44058;52.898;6.502;2022-07-29T06:26:27;15.90;99.90
58261;DHT22;44058;52.898;6.502;2022-07-29T06:28:53;15.90;99.90
58261;DHT22;44058;52.898;6.502;2022-07-29T06:31:19;16.00;99.90
58261;DHT22;44058;52.898;6.502;2022-07-29T06:33:44;16.00;99.90
58261;DHT22;44058;52.898;6.502;2022-07-29T06:36:10;16.10;99.90
58261;DHT22;44058;52.898;6.502;2022-07-29T06:38:36;16.10;99.90
58261;DHT22;44058;52.898;6.502;2022-07-29T06:41:03;16.10;99.90
58261;DHT22;44058;52.898;6.502;2022-07-29T06:43:36;16.20;99.90
58261;DHT22;44058;52.898;6.502;2022-07-29T06:46:08;16.20;99.90
58261;DHT22;44058;52.898;6.502;2022-07-29T06:48:34;16.30;99.90
58261;DHT22;44058;52.898;6.502;2022-07-29T06:51:02;16.30;99.90
58261;DHT22;44058;52.898;6.502;2022-07-29T06:53:27;16.40;99.90
58261;DHT22;44058;52.898;6.502;2022-07-29T06:55:53;16.40;99.90
58261;DHT22;44058;52.898;6.502;2022-07-29T06:58:19;16.40;99.90
58261;DHT22;44058;52.898;6.502;2022-07-29T07:00:49;16.40;99.90
58261;DHT22;44058;52.898;6.502;2022-07-29T07:03:16;16.40;99.90
58261;DHT22;44058;52.898;6.502;2022-07-29T07:05:42;16.40;99.90
58261;DHT22;44058;52.898;6.502;2022-07-29T07:08:08;16.40;99.90
58261;DHT22;44058;52.898;6.502;2022-07-29T07:10:34;16.40;99.90
58261;DHT22;44058;52.898;6.502;2022-07-29T07:13:00;16.40;99.90
58261;DHT22;44058;52.898;6.502;2022-07-29T07:15:27;16.40;99.90
58261;DHT22;44058;52.898;6.502;2022-07-29T07:17:53;16.40;99.90
58261;DHT22;44058;52.898;6.502;2022-07-29T07:20:19;16.40;99.90
58261;DHT22;44058;52.898;6.502;2022-07-29T07:22:45;16.50;99.90
58261;DHT22;44058;52.898;6.502;2022-07-29T07:25:13;16.40;99.90
58261;DHT22;44058;52.898;6.502;2022-07-29T07:27:39;16.50;99.90
58261;DHT22;44058;52.898;6.502;2022-07-29T07:30:05;16.50;99.90
58261;DHT22;44058;52.898;6.502;2022-07-29T07:32:35;16.50;99.90
58261;DHT22;44058;52.898;6.502;2022-07-29T07:35:01;16.50;99.90
58261;DHT22;44058;52.898;6.502;2022-07-29T07:37:27;16.50;99.90
58261;DHT22;44058;52.898;6.502;2022-07-29T07:39:53;16.50;99.90
58261;DHT22;44058;52.898;6.502;2022-07-29T07:42:19;16.60;99.90
58261;DHT22;44058;52.898;6.502;2022-07-29T07:44:45;16.60;99.90
58261;DHT22;44058;52.898;6.502;2022-07-29T07:47:12;16.70;99.90
58261;DHT22;44058;52.898;6.502;2022-07-29T07:49:38;16.70;99.90
58261;DHT22;44058;52.898;6.502;2022-07-29T07:52:04;16.70;99.90
58261;DHT22;44058;52.898;6.502;2022-07-29T07:54:30;16.70;99.90
58261;DHT22;44058;52.898;6.502;2022-07-29T07:56:56;16.80;99.90
58261;DHT22;44058;52.898;6.502;2022-07-29T07:59:22;16.80;99.90
58261;DHT22;44058;52.898;6.502;2022-07-29T08:01:49;16.90;99.90
58261;DHT22;44058;52.898;6.502;2022-07-29T08:04:15;17.00;99.90
58261;DHT22;44058;52.898;6.502;2022-07-29T08:06:40;17.10;99.90
58261;DHT22;44058;52.898;6.502;2022-07-29T08:09:06;17.20;99.90
58261;DHT22;44058;52.898;6.502;2022-07-29T08:11:32;17.20;99.90
58261;DHT22;44058;52.898;6.502;2022-07-29T08:13:58;17.30;99.90
58261;DHT22;44058;52.898;6.502;2022-07-29T08:16:23;17.30;99.90
58261;DHT22;44058;52.898;6.502;2022-07-29T08:18:50;17.30;99.90
58261;DHT22;44058;52.898;6.502;2022-07-29T08:21:17;17.40;99.90
58261;DHT22;44058;52.898;6.502;2022-07-29T08:23:45;17.40;99.90
58261;DHT22;44058;52.898;6.502;2022-07-29T08:26:41;17.40;99.90
58261;DHT22;44058;52.898;6.502;2022-07-29T08:29:07;17.50;99.90
58261;DHT22;44058;52.898;6.502;2022-07-29T08:31:33;17.60;99.90
58261;DHT22;44058;52.898;6.502;2022-07-29T08:33:59;17.70;99.90
58261;DHT22;44058;52.898;6.502;2022-07-29T08:36:25;17.90;99.90
58261;DHT22;44058;52.898;6.502;2022-07-29T08:38:52;17.90;99.90
58261;DHT22;44058;52.898;6.502;2022-07-29T08:41:21;18.00;99.90
58261;DHT22;44058;52.898;6.502;2022-07-29T08:43:48;18.00;99.90
58261;DHT22;44058;52.898;6.502;2022-07-29T08:46:15;18.00;99.90
58261;DHT22;44058;52.898;6.502;2022-07-29T08:48:42;18.00;99.90
58261;DHT22;44058;52.898;6.502;2022-07-29T08:51:13;17.90;99.90
58261;DHT22;44058;52.898;6.502;2022-07-29T08:53:42;18.00;99.90
58261;DHT22;44058;52.898;6.502;2022-07-29T08:56:11;18.00;99.90
58261;DHT22;44058;52.898;6.502;2022-07-29T08:58:38;18.00;99.90
58261;DHT22;44058;52.898;6.502;2022-07-29T09:01:04;18.00;99.90
58261;DHT22;44058;52.898;6.502;2022-07-29T09:03:31;17.90;99.90
58261;DHT22;44058;52.898;6.502;2022-07-29T09:06:01;17.90;99.90
58261;DHT22;44058;52.898;6.502;2022-07-29T09:08:32;17.90;99.90
58261;DHT22;44058;52.898;6.502;2022-07-29T09:11:01;18.00;99.90
58261;DHT22;44058;52.898;6.502;2022-07-29T09:13:27;18.00;99.90
58261;DHT22;44058;52.898;6.502;2022-07-29T09:15:53;17.90;99.90
58261;DHT22;44058;52.898;6.502;2022-07-29T09:18:42;18.00;99.90
58261;DHT22;44058;52.898;6.502;2022-07-29T09:21:10;17.90;99.90
58261;DHT22;44058;52.898;6.502;2022-07-29T09:24:09;17.90;99.90
58261;DHT22;44058;52.898;6.502;2022-07-29T09:26:37;17.90;99.90
58261;DHT22;44058;52.898;6.502;2022-07-29T09:29:14;18.00;99.90
58261;DHT22;44058;52.898;6.502;2022-07-29T09:31:43;17.80;99.90
58261;DHT22;44058;52.898;6.502;2022-07-29T09:34:10;17.90;99.90
58261;DHT22;44058;52.898;6.502;2022-07-29T09:36:43;17.90;99.90
58261;DHT22;44058;52.898;6.502;2022-07-29T09:39:10;18.00;99.90
58261;DHT22;44058;52.898;6.502;2022-07-29T09:41:49;18.00;99.90
58261;DHT22;44058;52.898;6.502;2022-07-29T09:44:15;18.00;99.90
58261;DHT22;44058;52.898;6.502;2022-07-29T09:47:00;18.00;99.90
58261;DHT22;44058;52.898;6.502;2022-07-29T09:49:32;18.00;99.90
58261;DHT22;44058;52.898;6.502;2022-07-29T09:52:07;17.90;99.90
58261;DHT22;44058;52.898;6.502;2022-07-29T09:54:34;18.00;99.90
58261;DHT22;44058;52.898;6.502;2022-07-29T09:57:07;18.00;99.90
58261;DHT22;44058;52.898;6.502;2022-07-29T09:59:34;18.10;99.90
58261;DHT22;44058;52.898;6.502;2022-07-29T10:02:00;18.10;99.90
58261;DHT22;44058;52.898;6.502;2022-07-29T10:04:42;18.10;99.90
58261;DHT22;44058;52.898;6.502;2022-07-29T10:07:08;18.20;99.90
58261;DHT22;44058;52.898;6.502;2022-07-29T10:09:35;18.20;99.90
58261;DHT22;44058;52.898;6.502;2022-07-29T10:12:12;18.30;99.90
58261;DHT22;44058;52.898;6.502;2022-07-29T10:14:41;18.30;99.90
58261;DHT22;44058;52.898;6.502;2022-07-29T10:17:09;18.40;99.90
58261;DHT22;44058;52.898;6.502;2022-07-29T10:19:36;18.40;99.90
58261;DHT22;44058;52.898;6.502;2022-07-29T10:22:05;18.50;99.90
58261;DHT22;44058;52.898;6.502;2022-07-29T10:24:31;18.60;99.90
58261;DHT22;44058;52.898;6.502;2022-07-29T10:27:00;18.70;99.90
58261;DHT22;44058;52.898;6.502;2022-07-29T10:29:27;18.80;99.90
58261;DHT22;44058;52.898;6.502;2022-07-29T10:40:41;19.60;99.90
58261;DHT22;44058;52.898;6.502;2022-07-29T10:43:32;19.80;99.90
58261;DHT22;44058;52.898;6.502;2022-07-29T10:46:02;20.00;99.90
58261;DHT22;44058;52.898;6.502;2022-07-29T10:48:29;20.00;99.90
58261;DHT22;44058;52.898;6.502;2022-07-29T10:56:27;20.30;99.90
58261;DHT22;44058;52.898;6.502;2022-07-29T11:01:45;20.70;99.90
58261;DHT22;44058;52.898;6.502;2022-07-29T11:04:11;20.80;99.90
58261;DHT22;44058;52.898;6.502;2022-07-29T11:07:06;20.90;99.90
58261;DHT22;44058;52.898;6.502;2022-07-29T11:09:33;20.70;99.90
58261;DHT22;44058;52.898;6.502;2022-07-29T11:11:59;20.70;99.90
58261;DHT22;44058;52.898;6.502;2022-07-29T11:17:18;20.70;99.90
58261;DHT22;44058;52.898;6.502;2022-07-29T11:19:44;20.90;99.90
58261;DHT22;44058;52.898;6.502;2022-07-29T11:22:10;21.10;99.90
58261;DHT22;44058;52.898;6.502;2022-07-29T11:24:37;21.30;99.90
58261;DHT22;44058;52.898;6.502;2022-07-29T11:27:15;21.30;99.90
58261;DHT22;44058;52.898;6.502;2022-07-29T11:30:00;21.10;99.90
58261;DHT22;44058;52.898;6.502;2022-07-29T11:32:37;21.00;99.90
58261;DHT22;44058;52.898;6.502;2022-07-29T11:35:18;21.10;99.90
58261;DHT22;44058;52.898;6.502;2022-07-29T11:41:21;21.40;99.90
58261;DHT22;44058;52.898;6.502;2022-07-29T11:43:58;21.40;99.90
58261;DHT22;44058;52.898;6.502;2022-07-29T11:46:46;21.50;99.90
58261;DHT22;44058;52.898;6.502;2022-07-29T11:49:26;21.30;99.90
58261;DHT22;44058;52.898;6.502;2022-07-29T11:51:53;21.30;99.90
58261;DHT22;44058;52.898;6.502;2022-07-29T11:54:30;21.50;99.90
58261;DHT22;44058;52.898;6.502;2022-07-29T11:57:00;21.50;99.90
58261;DHT22;44058;52.898;6.502;2022-07-29T11:59:26;21.50;99.90
58261;DHT22;44058;52.898;6.502;2022-07-29T12:01:57;21.70;99.90
58261;DHT22;44058;52.898;6.502;2022-07-29T12:04:23;21.60;99.90
58261;DHT22;44058;52.898;6.502;2022-07-29T12:06:53;21.80;99.90
58261;DHT22;44058;52.898;6.502;2022-07-29T12:09:20;21.90;99.90
58261;DHT22;44058;52.898;6.502;2022-07-29T12:11:46;21.90;99.90
58261;DHT22;44058;52.898;6.502;2022-07-29T12:14:32;22.00;99.90
58261;DHT22;44058;52.898;6.502;2022-07-29T12:16:59;21.80;99.90
58261;DHT22;44058;52.898;6.502;2022-07-29T12:19:26;21.80;99.90
58261;DHT22;44058;52.898;6.502;2022-07-29T12:21:53;21.70;99.90
58261;DHT22;44058;52.898;6.502;2022-07-29T12:24:20;21.70;99.90
58261;DHT22;44058;52.898;6.502;2022-07-29T12:26:59;21.80;99.90
58261;DHT22;44058;52.898;6.502;2022-07-29T12:29:27;21.90;99.90
58261;DHT22;44058;52.898;6.502;2022-07-29T12:31:53;22.00;99.90
58261;DHT22;44058;52.898;6.502;2022-07-29T12:34:22;22.30;99.90
58261;DHT22;44058;52.898;6.502;2022-07-29T12:36:48;22.30;99.90
58261;DHT22;44058;52.898;6.502;2022-07-29T12:39:18;22.40;99.90
58261;DHT22;44058;52.898;6.502;2022-07-29T12:41:44;22.40;99.90
58261;DHT22;44058;52.898;6.502;2022-07-29T12:44:11;22.40;99.90
58261;DHT22;44058;52.898;6.502;2022-07-29T12:46:37;22.30;99.90
58261;DHT22;44058;52.898;6.502;2022-07-29T12:49:03;22.30;99.90
58261;DHT22;44058;52.898;6.502;2022-07-29T12:51:32;22.30;99.90
58261;DHT22;44058;52.898;6.502;2022-07-29T12:54:13;22.20;99.90
58261;DHT22;44058;52.898;6.502;2022-07-29T12:56:40;22.20;99.90
58261;DHT22;44058;52.898;6.502;2022-07-29T12:59:20;22.20;99.90
58261;DHT22;44058;52.898;6.502;2022-07-29T13:01:47;22.20;99.90
58261;DHT22;44058;52.898;6.502;2022-07-29T13:04:31;22.40;99.90
58261;DHT22;44058;52.898;6.502;2022-07-29T13:07:04;22.40;99.90
58261;DHT22;44058;52.898;6.502;2022-07-29T13:09:41;22.50;99.90
58261;DHT22;44058;52.898;6.502;2022-07-29T13:12:12;22.60;99.90
58261;DHT22;44058;52.898;6.502;2022-07-29T13:14:40;22.70;99.90
58261;DHT22;44058;52.898;6.502;2022-07-29T13:17:14;22.90;99.90
58261;DHT22;44058;52.898;6.502;2022-07-29T13:22:11;22.50;99.90
58261;DHT22;44058;52.898;6.502;2022-07-29T13:27:29;22.40;99.90
58261;DHT22;44058;52.898;6.502;2022-07-29T13:29:56;22.40;99.90
58261;DHT22;44058;52.898;6.502;2022-07-29T13:32:24;22.20;99.90
58261;DHT22;44058;52.898;6.502;2022-07-29T13:34:51;22.30;99.90
58261;DHT22;44058;52.898;6.502;2022-07-29T13:37:17;22.30;99.90
58261;DHT22;44058;52.898;6.502;2022-07-29T13:39:43;22.30;99.90
58261;DHT22;44058;52.898;6.502;2022-07-29T13:42:09;22.30;99.90
58261;DHT22;44058;52.898;6.502;2022-07-29T13:44:35;22.50;99.90
58261;DHT22;44058;52.898;6.502;2022-07-29T13:47:01;22.60;99.90
58261;DHT22;44058;52.898;6.502;2022-07-29T13:49:27;22.60;99.90
58261;DHT22;44058;52.898;6.502;2022-07-29T13:51:54;22.80;99.90
58261;DHT22;44058;52.898;6.502;2022-07-29T13:54:20;22.90;99.90
58261;DHT22;44058;52.898;6.502;2022-07-29T13:56:45;23.00;99.90
58261;DHT22;44058;52.898;6.502;2022-07-29T13:59:11;22.80;99.90
58261;DHT22;44058;52.898;6.502;2022-07-29T14:01:38;23.00;99.90
58261;DHT22;44058;52.898;6.502;2022-07-29T14:04:07;23.10;99.90
58261;DHT22;44058;52.898;6.502;2022-07-29T14:06:33;23.20;99.90
58261;DHT22;44058;52.898;6.502;2022-07-29T14:08:59;23.20;99.90
58261;DHT22;44058;52.898;6.502;2022-07-29T14:11:24;23.30;99.90
58261;DHT22;44058;52.898;6.502;2022-07-29T14:13:50;23.40;99.90
58261;DHT22;44058;52.898;6.502;2022-07-29T14:16:16;23.50;99.90
58261;DHT22;44058;52.898;6.502;2022-07-29T14:18:42;23.40;99.90
58261;DHT22;44058;52.898;6.502;2022-07-29T14:21:10;23.50;99.90
58261;DHT22;44058;52.898;6.502;2022-07-29T14:23:36;23.60;99.90
58261;DHT22;44058;52.898;6.502;2022-07-29T14:26:02;23.70;99.90
58261;DHT22;44058;52.898;6.502;2022-07-29T14:28:28;23.60;99.90
58261;DHT22;44058;52.898;6.502;2022-07-29T14:30:53;23.60;99.90
58261;DHT22;44058;52.898;6.502;2022-07-29T14:33:19;23.60;99.90
58261;DHT22;44058;52.898;6.502;2022-07-29T14:35:45;23.70;99.90
58261;DHT22;44058;52.898;6.502;2022-07-29T14:38:11;23.80;99.90
58261;DHT22;44058;52.898;6.502;2022-07-29T14:40:36;23.80;99.90
58261;DHT22;44058;52.898;6.502;2022-07-29T14:43:03;24.10;99.90
58261;DHT22;44058;52.898;6.502;2022-07-29T14:45:29;24.20;99.90
58261;DHT22;44058;52.898;6.502;2022-07-29T14:47:54;24.30;99.90
58261;DHT22;44058;52.898;6.502;2022-07-29T14:50:20;24.40;99.90
58261;DHT22;44058;52.898;6.502;2022-07-29T14:52:49;24.40;99.90
58261;DHT22;44058;52.898;6.502;2022-07-29T14:55:15;24.40;99.90
58261;DHT22;44058;52.898;6.502;2022-07-29T14:57:41;24.20;99.90
58261;DHT22;44058;52.898;6.502;2022-07-29T15:00:07;24.30;99.90
58261;DHT22;44058;52.898;6.502;2022-07-29T15:02:34;24.30;99.90
58261;DHT22;44058;52.898;6.502;2022-07-29T15:05:00;24.40;99.90
58261;DHT22;44058;52.898;6.502;2022-07-29T15:07:26;24.50;99.90
58261;DHT22;44058;52.898;6.502;2022-07-29T15:09:52;24.60;99.90
58261;DHT22;44058;52.898;6.502;2022-07-29T15:12:17;24.60;99.90
58261;DHT22;44058;52.898;6.502;2022-07-29T15:14:43;24.40;99.90
58261;DHT22;44058;52.898;6.502;2022-07-29T15:17:09;24.00;99.90
58261;DHT22;44058;52.898;6.502;2022-07-29T15:19:34;24.10;99.80
58261;DHT22;44058;52.898;6.502;2022-07-29T15:22:00;24.00;99.90
58261;DHT22;44058;52.898;6.502;2022-07-29T15:24:26;24.10;99.90
58261;DHT22;44058;52.898;6.502;2022-07-29T15:26:52;24.20;99.90
58261;DHT22;44058;52.898;6.502;2022-07-29T15:29:18;24.30;99.90
58261;DHT22;44058;52.898;6.502;2022-07-29T15:31:44;24.50;99.90
58261;DHT22;44058;52.898;6.502;2022-07-29T15:34:09;24.60;99.90
58261;DHT22;44058;52.898;6.502;2022-07-29T15:36:35;24.60;99.90
58261;DHT22;44058;52.898;6.502;2022-07-29T15:39:01;24.70;99.90
58261;DHT22;44058;52.898;6.502;2022-07-29T15:41:27;24.60;99.90
58261;DHT22;44058;52.898;6.502;2022-07-29T15:43:52;24.50;99.90
58261;DHT22;44058;52.898;6.502;2022-07-29T15:46:18;24.50;99.90
58261;DHT22;44058;52.898;6.502;2022-07-29T15:49:05;24.40;99.90
58261;DHT22;44058;52.898;6.502;2022-07-29T15:51:32;24.40;99.90
58261;DHT22;44058;52.898;6.502;2022-07-29T15:54:01;24.40;99.90
58261;DHT22;44058;52.898;6.502;2022-07-29T15:56:27;24.50;99.90
58261;DHT22;44058;52.898;6.502;2022-07-29T15:58:53;24.50;99.90
58261;DHT22;44058;52.898;6.502;2022-07-29T16:01:19;24.30;99.90
58261;DHT22;44058;52.898;6.502;2022-07-29T16:03:45;24.30;99.20
58261;DHT22;44058;52.898;6.502;2022-07-29T16:06:11;24.30;99.90
58261;DHT22;44058;52.898;6.502;2022-07-29T16:08:36;24.20;99.90
58261;DHT22;44058;52.898;6.502;2022-07-29T16:11:02;24.20;99.90